sensor_id;sensor_type;location;lat;lon;timestamp;pressure;altitude;pressure_sealevel;temperature;humidity
21781;BME280;52576;53.614;9.894;2023-02-28T00:00:27;102927.88;;;3.32;61.15
21781;BME280;52576;53.614;9.894;2023-02-28T00:02:31;102929.59;;;3.32;61.03
21781;BME280;52576;53.614;9.894;2023-02-28T00:04:34;102920.09;;;3.31;60.92
21781;BME280;52576;53.614;9.894;2023-02-28T00:06:38;102931.31;;;3.30;61.27
21781;BME280;52576;53.614;9.894;2023-02-28T00:08:42;102928.72;;;3.30;61.25
21781;BME280;52576;53.614;9.894;2023-02-28T00:10:45;102927.00;;;3.29;61.11
21781;BME280;52576;53.614;9.894;2023-02-28T00:12:49;102930.47;;;3.28;61.52
21781;BME280;52576;53.614;9.894;2023-02-28T00:14:53;102929.59;;;3.26;60.83
21781;BME280;52576;53.614;9.894;2023-02-28T00:16:58;102935.66;;;3.25;60.52
21781;BME280;52576;53.614;9.894;2023-02-28T00:19:02;102932.19;;;3.21;60.34
21781;BME280;52576;53.614;9.894;2023-02-28T00:21:06;102928.75;;;3.21;60.54
21781;BME280;52576;53.614;9.894;2023-02-28T00:23:10;102929.59;;;3.20;60.91
21781;BME280;52576;53.614;9.894;2023-02-28T00:25:15;102939.09;;;3.18;61.04
21781;BME280;52576;53.614;9.894;2023-02-28T00:27:19;102938.25;;;3.16;61.25
21781;BME280;52576;53.614;9.894;2023-02-28T00:29:23;102944.28;;;3.13;61.11
21781;BME280;52576;53.614;9.894;2023-02-28T00:31:27;102937.41;;;3.09;61.19
21781;BME280;52576;53.614;9.894;2023-02-28T00:33:32;102940.00;;;3.08;61.08
21781;BME280;52576;53.614;9.894;2023-02-28T00:35:36;102937.41;;;3.06;61.09
21781;BME280;52576;53.614;9.894;2023-02-28T00:37:40;102939.13;;;3.04;61.58
21781;BME280;52576;53.614;9.894;2023-02-28T00:39:43;102936.53;;;3.02;61.22
21781;BME280;52576;53.614;9.894;2023-02-28T00:41:47;102936.53;;;3.01;60.89
21781;BME280;52576;53.614;9.894;2023-02-28T00:43:50;102936.53;;;2.99;60.79
21781;BME280;52576;53.614;9.894;2023-02-28T00:45:54;102940.88;;;2.97;60.62
21781;BME280;52576;53.614;9.894;2023-02-28T00:47:58;102934.81;;;2.95;60.52
21781;BME280;52576;53.614;9.894;2023-02-28T00:50:04;102946.91;;;2.92;60.32
21781;BME280;52576;53.614;9.894;2023-02-28T00:52:08;102948.63;;;2.88;60.22
21781;BME280;52576;53.614;9.894;2023-02-28T00:54:12;102953.84;;;2.85;60.50
21781;BME280;52576;53.614;9.894;2023-02-28T00:56:16;102945.19;;;2.80;60.76
21781;BME280;52576;53.614;9.894;2023-02-28T00:58:21;102954.69;;;2.78;60.89
21781;BME280;52576;53.614;9.894;2023-02-28T01:00:25;102947.78;;;2.77;60.79
21781;BME280;52576;53.614;9.894;2023-02-28T01:02:29;102941.75;;;2.75;61.16
21781;BME280;52576;53.614;9.894;2023-02-28T01:04:32;102938.28;;;2.73;61.59
21781;BME280;52576;53.614;9.894;2023-02-28T01:06:37;102947.78;;;2.72;61.44
21781;BME280;52576;53.614;9.894;2023-02-28T01:08:44;102946.06;;;2.71;61.57
21781;BME280;52576;53.614;9.894;2023-02-28T01:10:48;102940.00;;;2.71;61.69
21781;BME280;52576;53.614;9.894;2023-02-28T01:12:51;102942.59;;;2.71;61.34
21781;BME280;52576;53.614;9.894;2023-02-28T01:14:55;102945.19;;;2.68;61.17
21781;BME280;52576;53.614;9.894;2023-02-28T01:16:58;102947.75;;;2.65;61.10
21781;BME280;52576;53.614;9.894;2023-02-28T01:19:02;102941.72;;;2.63;61.40
21781;BME280;52576;53.614;9.894;2023-02-28T01:21:07;102941.75;;;2.60;61.32
21781;BME280;52576;53.614;9.894;2023-02-28T01:23:13;102944.34;;;2.58;61.36
21781;BME280;52576;53.614;9.894;2023-02-28T01:25:17;102936.56;;;2.57;61.63
21781;BME280;52576;53.614;9.894;2023-02-28T01:27:20;102938.28;;;2.55;62.01
21781;BME280;52576;53.614;9.894;2023-02-28T01:29:24;102953.81;;;2.55;61.84
21781;BME280;52576;53.614;9.894;2023-02-28T01:31:27;102945.19;;;2.53;62.36
21781;BME280;52576;53.614;9.894;2023-02-28T01:33:32;102942.59;;;2.51;62.83
21781;BME280;52576;53.614;9.894;2023-02-28T01:35:36;102936.53;;;2.51;63.56
21781;BME280;52576;53.614;9.894;2023-02-28T01:37:39;102940.88;;;2.50;63.80
21781;BME280;52576;53.614;9.894;2023-02-28T01:39:44;102946.91;;;2.51;63.81
21781;BME280;52576;53.614;9.894;2023-02-28T01:41:47;102948.63;;;2.50;64.08
21781;BME280;52576;53.614;9.894;2023-02-28T01:43:58;102949.47;;;2.49;64.26
21781;BME280;52576;53.614;9.894;2023-02-28T01:46:05;102947.75;;;2.45;64.38
21781;BME280;52576;53.614;9.894;2023-02-28T01:48:09;102946.03;;;2.43;64.21
21781;BME280;52576;53.614;9.894;2023-02-28T01:50:18;102940.84;;;2.39;64.12
21781;BME280;52576;53.614;9.894;2023-02-28T01:52:22;102946.00;;;2.38;63.93
21781;BME280;52576;53.614;9.894;2023-02-28T01:54:30;102943.41;;;2.36;64.11
21781;BME280;52576;53.614;9.894;2023-02-28T01:56:36;102943.41;;;2.36;64.06
21781;BME280;52576;53.614;9.894;2023-02-28T01:58:40;102947.72;;;2.34;64.07
21781;BME280;52576;53.614;9.894;2023-02-28T02:00:43;102934.78;;;2.34;64.25
21781;BME280;52576;53.614;9.894;2023-02-28T02:02:49;102933.09;;;2.33;64.49
21781;BME280;52576;53.614;9.894;2023-02-28T02:04:56;102945.16;;;2.33;64.49
21781;BME280;52576;53.614;9.894;2023-02-28T02:07:04;102943.44;;;2.33;64.79
21781;BME280;52576;53.614;9.894;2023-02-28T02:09:08;102938.25;;;2.33;65.09
21781;BME280;52576;53.614;9.894;2023-02-28T02:11:13;102927.91;;;2.33;64.95
21781;BME280;52576;53.614;9.894;2023-02-28T02:15:56;102942.56;;;2.33;64.71
21781;BME280;52576;53.614;9.894;2023-02-28T02:18:11;102945.13;;;2.34;64.94
21781;BME280;52576;53.614;9.894;2023-02-28T02:25:41;102939.09;;;2.34;66.05
21781;BME280;52576;53.614;9.894;2023-02-28T02:30:43;102937.38;;;2.36;65.63
21781;BME280;52576;53.614;9.894;2023-02-28T02:33:05;102928.75;;;2.35;66.16
21781;BME280;52576;53.614;9.894;2023-02-28T02:35:16;102925.28;;;2.36;66.39
21781;BME280;52576;53.614;9.894;2023-02-28T02:37:29;102933.06;;;2.36;66.29
21781;BME280;52576;53.614;9.894;2023-02-28T02:39:40;102921.84;;;2.36;66.12
21781;BME280;52576;53.614;9.894;2023-02-28T02:41:51;102923.56;;;2.37;65.93
21781;BME280;52576;53.614;9.894;2023-02-28T02:44:01;102924.44;;;2.37;65.97
21781;BME280;52576;53.614;9.894;2023-02-28T02:46:10;102920.13;;;2.36;66.00
21781;BME280;52576;53.614;9.894;2023-02-28T02:48:21;102933.06;;;2.36;66.01
21781;BME280;52576;53.614;9.894;2023-02-28T02:50:31;102931.34;;;2.35;65.87
21781;BME280;52576;53.614;9.894;2023-02-28T02:52:38;102924.44;;;2.34;66.34
21781;BME280;52576;53.614;9.894;2023-02-28T02:54:46;102925.31;;;2.33;67.03
21781;BME280;52576;53.614;9.894;2023-02-28T02:56:52;102919.28;;;2.31;66.75
21781;BME280;52576;53.614;9.894;2023-02-28T02:59:00;102922.72;;;2.27;66.46
21781;BME280;52576;53.614;9.894;2023-02-28T03:01:05;102915.81;;;2.25;66.29
21781;BME280;52576;53.614;9.894;2023-02-28T03:03:10;102927.88;;;2.21;66.21
21781;BME280;52576;53.614;9.894;2023-02-28T03:05:18;102920.09;;;2.17;66.14
21781;BME280;52576;53.614;9.894;2023-02-28T03:07:25;102922.66;;;2.15;66.18
21781;BME280;52576;53.614;9.894;2023-02-28T03:09:29;102917.50;;;2.12;66.31
21781;BME280;52576;53.614;9.894;2023-02-28T03:11:38;102926.09;;;2.08;66.58
21781;BME280;52576;53.614;9.894;2023-02-28T03:13:59;102926.09;;;2.03;66.53
21781;BME280;52576;53.614;9.894;2023-02-28T03:16:25;102927.81;;;1.97;66.42
21781;BME280;52576;53.614;9.894;2023-02-28T03:18:36;102924.34;;;1.95;66.64
21781;BME280;52576;53.614;9.894;2023-02-28T03:20:49;102930.38;;;1.91;66.98
21781;BME280;52576;53.614;9.894;2023-02-28T03:23:03;102928.63;;;1.87;66.99
21781;BME280;52576;53.614;9.894;2023-02-28T03:25:16;102929.47;;;1.83;67.46
21781;BME280;52576;53.614;9.894;2023-02-28T03:27:25;102926.88;;;1.77;67.60
21781;BME280;52576;53.614;9.894;2023-02-28T03:29:33;102930.28;;;1.71;67.64
21781;BME280;52576;53.614;9.894;2023-02-28T03:31:41;102932.84;;;1.66;67.81
21781;BME280;52576;53.614;9.894;2023-02-28T03:33:51;102941.44;;;1.62;67.79
21781;BME280;52576;53.614;9.894;2023-02-28T03:36:00;102943.16;;;1.60;67.69
21781;BME280;52576;53.614;9.894;2023-02-28T03:38:11;102948.31;;;1.60;67.77
21781;BME280;52576;53.614;9.894;2023-02-28T03:40:20;102941.44;;;1.59;67.53
21781;BME280;52576;53.614;9.894;2023-02-28T03:42:27;102937.13;;;1.58;67.70
21781;BME280;52576;53.614;9.894;2023-02-28T03:44:34;102939.69;;;1.58;67.47
21781;BME280;52576;53.614;9.894;2023-02-28T03:46:41;102937.13;;;1.55;67.34
21781;BME280;52576;53.614;9.894;2023-02-28T03:48:52;102934.53;;;1.52;67.38
21781;BME280;52576;53.614;9.894;2023-02-28T03:50:58;102941.38;;;1.47;67.45
21781;BME280;52576;53.614;9.894;2023-02-28T03:53:07;102935.31;;;1.42;67.55
21781;BME280;52576;53.614;9.894;2023-02-28T03:55:15;102937.84;;;1.36;67.91
21781;BME280;52576;53.614;9.894;2023-02-28T03:57:25;102946.44;;;1.29;67.76
21781;BME280;52576;53.614;9.894;2023-02-28T03:59:34;102943.84;;;1.24;67.66
21781;BME280;52576;53.614;9.894;2023-02-28T04:01:41;102949.81;;;1.17;67.79
21781;BME280;52576;53.614;9.894;2023-02-28T04:03:46;102946.31;;;1.11;68.02
21781;BME280;52576;53.614;9.894;2023-02-28T04:05:51;102941.97;;;1.05;68.10
21781;BME280;52576;53.614;9.894;2023-02-28T04:08:03;102947.97;;;0.99;68.25
21781;BME280;52576;53.614;9.894;2023-02-28T04:10:08;102949.66;;;0.94;68.61
21781;BME280;52576;53.614;9.894;2023-02-28T04:12:13;102952.16;;;0.88;68.63
21781;BME280;52576;53.614;9.894;2023-02-28T04:14:17;102947.81;;;0.81;68.85
21781;BME280;52576;53.614;9.894;2023-02-28T04:16:21;102946.91;;;0.75;69.19
21781;BME280;52576;53.614;9.894;2023-02-28T04:18:36;102948.56;;;0.70;69.39
21781;BME280;52576;53.614;9.894;2023-02-28T04:20:39;102947.66;;;0.63;69.62
21781;BME280;52576;53.614;9.894;2023-02-28T04:22:43;102947.59;;;0.58;69.84
21781;BME280;52576;53.614;9.894;2023-02-28T04:24:46;102957.88;;;0.54;69.75
21781;BME280;52576;53.614;9.894;2023-02-28T04:26:51;102947.53;;;0.48;69.60
21781;BME280;52576;53.614;9.894;2023-02-28T04:28:56;102955.22;;;0.43;70.00
21781;BME280;52576;53.614;9.894;2023-02-28T04:31:01;102960.31;;;0.39;69.99
21781;BME280;52576;53.614;9.894;2023-02-28T04:33:05;102954.25;;;0.33;70.11
21781;BME280;52576;53.614;9.894;2023-02-28T04:35:08;102956.78;;;0.29;70.38
21781;BME280;52576;53.614;9.894;2023-02-28T04:37:13;102952.44;;;0.26;70.66
21781;BME280;52576;53.614;9.894;2023-02-28T04:39:16;102950.75;;;0.25;70.82
21781;BME280;52576;53.614;9.894;2023-02-28T04:41:20;102945.56;;;0.22;70.97
21781;BME280;52576;53.614;9.894;2023-02-28T04:43:25;102949.81;;;0.20;71.04
21781;BME280;52576;53.614;9.894;2023-02-28T04:45:30;102954.09;;;0.18;71.15
21781;BME280;52576;53.614;9.894;2023-02-28T04:47:35;102959.22;;;0.17;71.18
21781;BME280;52576;53.614;9.894;2023-02-28T04:49:39;102954.88;;;0.13;71.24
21781;BME280;52576;53.614;9.894;2023-02-28T04:51:43;102960.84;;;0.07;71.48
21781;BME280;52576;53.614;9.894;2023-02-28T04:53:48;102960.78;;;0.04;71.64
21781;BME280;52576;53.614;9.894;2023-02-28T04:55:51;102953.88;;;-0.02;71.85
21781;BME280;52576;53.614;9.894;2023-02-28T04:57:55;102960.72;;;-0.05;72.14
21781;BME280;52576;53.614;9.894;2023-02-28T04:59:58;102960.66;;;-0.08;72.11
21781;BME280;52576;53.614;9.894;2023-02-28T05:02:03;102955.44;;;-0.14;72.32
21781;BME280;52576;53.614;9.894;2023-02-28T05:04:09;102969.13;;;-0.18;72.51
21781;BME280;52576;53.614;9.894;2023-02-28T05:06:13;102961.31;;;-0.24;72.71
21781;BME280;52576;53.614;9.894;2023-02-28T05:08:17;102967.28;;;-0.28;73.02
21781;BME280;52576;53.614;9.894;2023-02-28T05:10:20;102968.94;;;-0.33;73.16
21781;BME280;52576;53.614;9.894;2023-02-28T05:12:24;102969.72;;;-0.38;73.27
21781;BME280;52576;53.614;9.894;2023-02-28T05:14:27;102966.22;;;-0.43;73.22
21781;BME280;52576;53.614;9.894;2023-02-28T05:16:31;102962.72;;;-0.48;73.32
21781;BME280;52576;53.614;9.894;2023-02-28T05:18:36;102960.94;;;-0.53;73.44
21781;BME280;52576;53.614;9.894;2023-02-28T05:20:39;102958.31;;;-0.58;73.61
21781;BME280;52576;53.614;9.894;2023-02-28T05:22:43;102961.66;;;-0.62;73.83
21781;BME280;52576;53.614;9.894;2023-02-28T05:24:46;102959.88;;;-0.66;73.84
21781;BME280;52576;53.614;9.894;2023-02-28T05:26:51;102962.41;;;-0.71;74.07
21781;BME280;52576;53.614;9.894;2023-02-28T05:28:55;102970.09;;;-0.72;74.14
21781;BME280;52576;53.614;9.894;2023-02-28T05:30:59;102970.03;;;-0.75;74.31
21781;BME280;52576;53.614;9.894;2023-02-28T05:33:03;102975.19;;;-0.78;74.48
21781;BME280;52576;53.614;9.894;2023-02-28T05:35:09;102974.25;;;-0.82;74.64
21781;BME280;52576;53.614;9.894;2023-02-28T05:37:13;102974.22;;;-0.85;74.67
21781;BME280;52576;53.614;9.894;2023-02-28T05:39:17;102974.16;;;-0.88;74.90
21781;BME280;52576;53.614;9.894;2023-02-28T05:41:21;102979.25;;;-0.91;74.90
21781;BME280;52576;53.614;9.894;2023-02-28T05:43:25;102976.59;;;-0.95;75.22
21781;BME280;52576;53.614;9.894;2023-02-28T05:45:28;102981.69;;;-0.98;75.14
21781;BME280;52576;53.614;9.894;2023-02-28T05:47:32;102976.50;;;-1.02;75.38
21781;BME280;52576;53.614;9.894;2023-02-28T05:49:35;102980.75;;;-1.05;75.43
21781;BME280;52576;53.614;9.894;2023-02-28T05:51:40;102981.59;;;-1.06;75.66
21781;BME280;52576;53.614;9.894;2023-02-28T05:53:44;102992.72;;;-1.09;75.65
21781;BME280;52576;53.614;9.894;2023-02-28T05:55:47;102984.94;;;-1.12;75.79
21781;BME280;52576;53.614;9.894;2023-02-28T05:57:50;102984.91;;;-1.13;75.96
21781;BME280;52576;53.614;9.894;2023-02-28T05:59:54;102983.13;;;-1.16;76.15
21781;BME280;52576;53.614;9.894;2023-02-28T06:01:57;102989.97;;;-1.18;76.13
21781;BME280;52576;53.614;9.894;2023-02-28T06:04:02;102990.78;;;-1.20;76.22
21781;BME280;52576;53.614;9.894;2023-02-28T06:06:06;102990.78;;;-1.20;76.50
21781;BME280;52576;53.614;9.894;2023-02-28T06:08:11;102990.78;;;-1.20;76.44
21781;BME280;52576;53.614;9.894;2023-02-28T06:10:15;102988.19;;;-1.22;76.59
21781;BME280;52576;53.614;9.894;2023-02-28T06:12:18;102988.16;;;-1.23;76.69
21781;BME280;52576;53.614;9.894;2023-02-28T06:14:22;102989.84;;;-1.24;76.80
21781;BME280;52576;53.614;9.894;2023-02-28T06:16:26;102997.56;;;-1.24;76.94
21781;BME280;52576;53.614;9.894;2023-02-28T06:18:30;102989.00;;;-1.23;76.93
21781;BME280;52576;53.614;9.894;2023-02-28T06:20:33;102995.88;;;-1.23;76.95
21781;BME280;52576;53.614;9.894;2023-02-28T06:22:38;102989.84;;;-1.24;77.03
21781;BME280;52576;53.614;9.894;2023-02-28T06:24:43;102991.53;;;-1.26;77.18
21781;BME280;52576;53.614;9.894;2023-02-28T06:26:47;102993.25;;;-1.25;77.17
21781;BME280;52576;53.614;9.894;2023-02-28T06:28:50;102999.25;;;-1.26;77.42
21781;BME280;52576;53.614;9.894;2023-02-28T06:30:54;102991.53;;;-1.26;77.48
21781;BME280;52576;53.614;9.894;2023-02-28T06:32:57;102997.50;;;-1.27;77.62
21781;BME280;52576;53.614;9.894;2023-02-28T06:35:01;102994.09;;;-1.26;77.60
21781;BME280;52576;53.614;9.894;2023-02-28T06:37:04;103007.81;;;-1.27;77.70
21781;BME280;52576;53.614;9.894;2023-02-28T06:39:08;103010.44;;;-1.24;77.87
21781;BME280;52576;53.614;9.894;2023-02-28T06:41:13;103005.28;;;-1.24;77.75
21781;BME280;52576;53.614;9.894;2023-02-28T06:43:17;103017.31;;;-1.23;77.92
21781;BME280;52576;53.614;9.894;2023-02-28T06:45:20;103006.19;;;-1.22;77.92
21781;BME280;52576;53.614;9.894;2023-02-28T06:47:24;103010.50;;;-1.21;78.05
21781;BME280;52576;53.614;9.894;2023-02-28T06:49:27;103015.66;;;-1.19;77.98
21781;BME280;52576;53.614;9.894;2023-02-28T06:51:31;103012.25;;;-1.18;78.19
21781;BME280;52576;53.614;9.894;2023-02-28T06:53:35;103010.56;;;-1.18;78.17
21781;BME280;52576;53.614;9.894;2023-02-28T06:55:38;103017.47;;;-1.15;78.21
21781;BME280;52576;53.614;9.894;2023-02-28T06:57:43;103019.22;;;-1.13;78.33
21781;BME280;52576;53.614;9.894;2023-02-28T06:59:47;103016.72;;;-1.10;78.32
21781;BME280;52576;53.614;9.894;2023-02-28T07:01:50;103019.34;;;-1.07;78.47
21781;BME280;52576;53.614;9.894;2023-02-28T07:03:54;103013.38;;;-1.03;78.44
21781;BME280;52576;53.614;9.894;2023-02-28T07:05:58;103009.97;;;-1.00;78.39
21781;BME280;52576;53.614;9.894;2023-02-28T07:08:01;103010.91;;;-0.96;78.34
21781;BME280;52576;53.614;9.894;2023-02-28T07:10:06;103017.84;;;-0.92;78.40
21781;BME280;52576;53.614;9.894;2023-02-28T07:12:09;103019.63;;;-0.88;78.40
21781;BME280;52576;53.614;9.894;2023-02-28T07:14:14;103022.28;;;-0.84;78.34
21781;BME280;52576;53.614;9.894;2023-02-28T07:16:18;103018.06;;;-0.80;78.26
21781;BME280;52576;53.614;9.894;2023-02-28T07:18:22;103026.72;;;-0.74;78.12
21781;BME280;52576;53.614;9.894;2023-02-28T07:20:25;103027.66;;;-0.69;77.97
21781;BME280;52576;53.614;9.894;2023-02-28T07:22:29;103030.31;;;-0.64;77.96
21781;BME280;52576;53.614;9.894;2023-02-28T07:24:33;103028.69;;;-0.59;77.85
21781;BME280;52576;53.614;9.894;2023-02-28T07:26:36;103025.34;;;-0.52;77.58
21781;BME280;52576;53.614;9.894;2023-02-28T07:28:40;103028.84;;;-0.47;77.41
21781;BME280;52576;53.614;9.894;2023-02-28T07:30:45;103028.09;;;-0.40;77.17
21781;BME280;52576;53.614;9.894;2023-02-28T07:32:50;103031.66;;;-0.33;77.16
21781;BME280;52576;53.614;9.894;2023-02-28T07:34:53;103030.88;;;-0.27;76.86
21781;BME280;52576;53.614;9.894;2023-02-28T07:36:57;103032.66;;;-0.20;76.65
21781;BME280;52576;53.614;9.894;2023-02-28T07:39:00;103017.28;;;-0.14;76.36
21781;BME280;52576;53.614;9.894;2023-02-28T07:41:04;103029.44;;;-0.06;76.14
21781;BME280;52576;53.614;9.894;2023-02-28T07:43:08;103026.94;;;0.02;75.86
21781;BME280;52576;53.614;9.894;2023-02-28T07:45:11;103030.47;;;0.09;75.63
21781;BME280;52576;53.614;9.894;2023-02-28T07:47:16;103026.25;;;0.15;75.40
21781;BME280;52576;53.614;9.894;2023-02-28T07:49:20;103029.81;;;0.23;75.16
21781;BME280;52576;53.614;9.894;2023-02-28T07:51:23;103026.44;;;0.30;74.84
21781;BME280;52576;53.614;9.894;2023-02-28T07:53:27;103029.97;;;0.39;74.54
21781;BME280;52576;53.614;9.894;2023-02-28T07:55:31;103030.94;;;0.47;74.08
21781;BME280;52576;53.614;9.894;2023-02-28T07:57:34;103031.84;;;0.55;73.87
21781;BME280;52576;53.614;9.894;2023-02-28T07:59:38;103030.22;;;0.63;73.60
21781;BME280;52576;53.614;9.894;2023-02-28T08:01:41;103043.25;;;0.72;73.17
21781;BME280;52576;53.614;9.894;2023-02-28T08:03:48;103045.03;;;0.81;72.77
21781;BME280;52576;53.614;9.894;2023-02-28T08:05:51;103037.38;;;0.88;72.41
21781;BME280;52576;53.614;9.894;2023-02-28T08:07:55;103037.47;;;0.97;72.15
21781;BME280;52576;53.614;9.894;2023-02-28T08:09:59;103031.50;;;1.06;71.58
21781;BME280;52576;53.614;9.894;2023-02-28T08:12:03;103029.88;;;1.17;71.23
21781;BME280;52576;53.614;9.894;2023-02-28T08:14:07;103033.41;;;1.27;70.80
21781;BME280;52576;53.614;9.894;2023-02-28T08:16:11;103039.50;;;1.38;70.29
21781;BME280;52576;53.614;9.894;2023-02-28T08:18:16;103038.72;;;1.47;69.96
21781;BME280;52576;53.614;9.894;2023-02-28T08:20:21;103032.75;;;1.55;69.31
21781;BME280;52576;53.614;9.894;2023-02-28T08:22:24;103038.81;;;1.65;68.62
21781;BME280;52576;53.614;9.894;2023-02-28T08:24:28;103042.34;;;1.73;68.18
21781;BME280;52576;53.614;9.894;2023-02-28T08:26:32;103038.94;;;1.82;67.75
21781;BME280;52576;53.614;9.894;2023-02-28T08:28:35;103038.09;;;1.89;67.35
21781;BME280;52576;53.614;9.894;2023-02-28T08:30:39;103037.28;;;1.96;66.89
21781;BME280;52576;53.614;9.894;2023-02-28T08:32:42;103038.19;;;2.04;66.85
21781;BME280;52576;53.614;9.894;2023-02-28T08:34:46;103039.94;;;2.11;66.13
21781;BME280;52576;53.614;9.894;2023-02-28T08:36:51;103041.69;;;2.18;65.63
21781;BME280;52576;53.614;9.894;2023-02-28T08:38:55;103042.59;;;2.26;65.29
21781;BME280;52576;53.614;9.894;2023-02-28T08:41:01;103043.47;;;2.34;64.83
21781;BME280;52576;53.614;9.894;2023-02-28T08:43:05;103046.97;;;2.43;64.50
21781;BME280;52576;53.614;9.894;2023-02-28T08:45:10;103042.69;;;2.51;63.92
21781;BME280;52576;53.614;9.894;2023-02-28T08:47:14;103048.75;;;2.59;63.44
21781;BME280;52576;53.614;9.894;2023-02-28T08:49:17;103038.38;;;2.65;62.70
21781;BME280;52576;53.614;9.894;2023-02-28T08:51:22;103043.59;;;2.71;62.74
21781;BME280;52576;53.614;9.894;2023-02-28T08:53:30;103047.91;;;2.77;62.13
21781;BME280;52576;53.614;9.894;2023-02-28T08:55:34;103050.53;;;2.84;61.87
21781;BME280;52576;53.614;9.894;2023-02-28T08:57:37;103043.59;;;2.89;61.86
21781;BME280;52576;53.614;9.894;2023-02-28T08:59:41;103054.84;;;2.96;61.65
21781;BME280;52576;53.614;9.894;2023-02-28T09:01:44;103044.50;;;3.03;61.12
21781;BME280;52576;53.614;9.894;2023-02-28T09:03:49;103049.69;;;3.10;60.97
21781;BME280;52576;53.614;9.894;2023-02-28T09:05:58;103043.63;;;3.17;60.75
21781;BME280;52576;53.614;9.894;2023-02-28T09:08:02;103049.69;;;3.22;60.37
21781;BME280;52576;53.614;9.894;2023-02-28T09:10:08;103052.28;;;3.28;60.18
21781;BME280;52576;53.614;9.894;2023-02-28T09:12:11;103047.09;;;3.34;59.74
21781;BME280;52576;53.614;9.894;2023-02-28T09:14:15;103053.97;;;3.41;59.71
21781;BME280;52576;53.614;9.894;2023-02-28T09:16:19;103056.56;;;3.47;59.54
21781;BME280;52576;53.614;9.894;2023-02-28T09:18:23;103053.97;;;3.53;58.86
21781;BME280;52576;53.614;9.894;2023-02-28T09:20:26;103053.97;;;3.59;58.68
21781;BME280;52576;53.614;9.894;2023-02-28T09:22:29;103049.63;;;3.64;58.23
21781;BME280;52576;53.614;9.894;2023-02-28T09:24:33;103046.16;;;3.70;58.01
21781;BME280;52576;53.614;9.894;2023-02-28T09:26:37;103047.03;;;3.77;57.55
21781;BME280;52576;53.614;9.894;2023-02-28T09:28:48;103051.34;;;3.82;57.37
21781;BME280;52576;53.614;9.894;2023-02-28T09:30:53;103063.44;;;3.88;57.14
21781;BME280;52576;53.614;9.894;2023-02-28T09:32:58;103052.16;;;3.92;56.88
21781;BME280;52576;53.614;9.894;2023-02-28T09:35:02;103053.88;;;3.96;56.54
21781;BME280;52576;53.614;9.894;2023-02-28T09:37:05;103053.88;;;3.99;56.34
21781;BME280;52576;53.614;9.894;2023-02-28T09:39:09;103054.72;;;4.01;56.02
21781;BME280;52576;53.614;9.894;2023-02-28T09:41:14;103054.72;;;4.04;55.85
21781;BME280;52576;53.614;9.894;2023-02-28T09:43:22;103059.03;;;4.08;55.59
21781;BME280;52576;53.614;9.894;2023-02-28T09:45:29;103060.78;;;4.12;55.41
21781;BME280;52576;53.614;9.894;2023-02-28T09:47:36;103062.44;;;4.16;55.16
21781;BME280;52576;53.614;9.894;2023-02-28T09:49:45;103052.94;;;4.20;54.85
21781;BME280;52576;53.614;9.894;2023-02-28T09:51:51;103063.31;;;4.24;54.98
21781;BME280;52576;53.614;9.894;2023-02-28T09:53:57;103062.41;;;4.30;54.53
21781;BME280;52576;53.614;9.894;2023-02-28T09:56:07;103063.28;;;4.35;54.47
21781;BME280;52576;53.614;9.894;2023-02-28T09:58:16;103065.00;;;4.39;54.25
21781;BME280;52576;53.614;9.894;2023-02-28T10:00:29;103063.22;;;4.42;54.09
21781;BME280;52576;53.614;9.894;2023-02-28T10:02:56;103061.47;;;4.48;53.92
21781;BME280;52576;53.614;9.894;2023-02-28T10:05:08;103060.59;;;4.50;53.63
21781;BME280;52576;53.614;9.894;2023-02-28T10:07:21;103061.44;;;4.55;53.39
21781;BME280;52576;53.614;9.894;2023-02-28T10:09:30;103057.09;;;4.59;53.22
21781;BME280;52576;53.614;9.894;2023-02-28T10:11:36;103059.66;;;4.63;53.47
21781;BME280;52576;53.614;9.894;2023-02-28T10:13:50;103059.66;;;4.66;53.38
21781;BME280;52576;53.614;9.894;2023-02-28T10:16:00;103057.00;;;4.71;52.87
21781;BME280;52576;53.614;9.894;2023-02-28T10:18:09;103055.25;;;4.76;52.82
21781;BME280;52576;53.614;9.894;2023-02-28T10:20:19;103058.69;;;4.78;52.68
21781;BME280;52576;53.614;9.894;2023-02-28T10:22:26;103060.41;;;4.82;52.44
21781;BME280;52576;53.614;9.894;2023-02-28T10:24:35;103056.94;;;4.85;52.29
21781;BME280;52576;53.614;9.894;2023-02-28T10:26:44;103067.28;;;4.89;52.21
21781;BME280;52576;53.614;9.894;2023-02-28T10:28:48;103062.09;;;4.92;52.19
21781;BME280;52576;53.614;9.894;2023-02-28T10:30:53;103060.28;;;4.97;51.84
21781;BME280;52576;53.614;9.894;2023-02-28T10:32:58;103055.06;;;5.00;51.31
21781;BME280;52576;53.614;9.894;2023-02-28T10:35:14;103052.47;;;5.03;51.28
21781;BME280;52576;53.614;9.894;2023-02-28T10:37:19;103051.56;;;5.07;51.02
21781;BME280;52576;53.614;9.894;2023-02-28T10:39:37;103055.00;;;5.09;50.84
21781;BME280;52576;53.614;9.894;2023-02-28T10:41:43;103061.91;;;5.14;50.72
21781;BME280;52576;53.614;9.894;2023-02-28T10:43:46;103047.19;;;5.16;50.56
21781;BME280;52576;53.614;9.894;2023-02-28T10:45:58;103054.09;;;5.18;50.11
21781;BME280;52576;53.614;9.894;2023-02-28T10:48:22;103053.25;;;5.15;50.15
21781;BME280;52576;53.614;9.894;2023-02-28T10:50:36;103059.31;;;5.14;50.48
21781;BME280;52576;53.614;9.894;2023-02-28T10:52:41;103056.69;;;5.17;50.21
21781;BME280;52576;53.614;9.894;2023-02-28T10:54:45;103052.34;;;5.19;49.92
21781;BME280;52576;53.614;9.894;2023-02-28T10:57:14;103061.81;;;5.23;50.08
21781;BME280;52576;53.614;9.894;2023-02-28T10:59:28;103053.13;;;5.27;49.84
21781;BME280;52576;53.614;9.894;2023-02-28T11:01:37;103057.44;;;5.31;49.50
21781;BME280;52576;53.614;9.894;2023-02-28T11:03:42;103060.00;;;5.34;49.53
21781;BME280;52576;53.614;9.894;2023-02-28T11:05:46;103049.56;;;5.40;49.29
21781;BME280;52576;53.614;9.894;2023-02-28T11:07:52;103053.88;;;5.44;49.25
21781;BME280;52576;53.614;9.894;2023-02-28T11:09:57;103051.19;;;5.50;48.82
21781;BME280;52576;53.614;9.894;2023-02-28T11:12:02;103049.44;;;5.54;48.89
21781;BME280;52576;53.614;9.894;2023-02-28T11:14:18;103060.66;;;5.57;48.69